Time;durP1;ratioP1;P1;durP2;ratioP2;P2;SDS_P1;SDS_P2;PMS_P1;PMS_P2;Temp;Humidity;BMP_temperature;BMP_pressure;BME280_temperature;BME280_humidity;BME280_pressure;Samples;Min_cycle;Max_cycle;Signal;HPM_P1;HPM_P2
2023/07/18 00:01:39;;;;;;;6.78;3.05;;;15.80;99.90;;;;;;4996251;28;20050;-77
2023/07/18 00:04:28;;;;;;;7.55;2.85;;;15.80;99.90;;;;;;5003882;28;20478;-78
2023/07/18 00:07:14;;;;;;;5.82;2.80;;;15.60;99.90;;;;;;4994875;28;20056;-78
2023/07/18 00:10:00;;;;;;;5.60;2.67;;;15.60;99.90;;;;;;5009626;28;20038;-78
2023/07/18 00:12:46;;;;;;;5.53;2.63;;;15.60;99.90;;;;;;5017065;28;20509;-78
2023/07/18 00:15:32;;;;;;;7.63;3.30;;;15.60;99.90;;;;;;4989195;28;20051;-78
2023/07/18 00:18:21;;;;;;;5.68;2.78;;;15.50;99.90;;;;;;4999653;28;20780;-77
2023/07/18 00:21:07;;;;;;;7.88;2.92;;;15.50;99.90;;;;;;4994401;28;20045;-77
2023/07/18 00:23:53;;;;;;;8.95;3.15;;;15.50;99.90;;;;;;4991590;28;20037;-78
2023/07/18 00:26:39;;;;;;;7.15;3.22;;;15.40;99.90;;;;;;5007475;28;20076;-77
2023/07/18 00:29:26;;;;;;;9.20;3.13;;;15.40;99.90;;;;;;5011621;28;20076;-78
2023/07/18 00:32:12;;;;;;;6.47;2.92;;;15.40;99.90;;;;;;4993775;28;20060;-77
2023/07/18 00:34:58;;;;;;;7.43;3.67;;;15.30;99.90;;;;;;5004819;28;20042;-78
2023/07/18 00:37:44;;;;;;;8.23;2.97;;;15.30;99.90;;;;;;4979498;28;20038;-78
2023/07/18 00:40:30;;;;;;;6.28;3.28;;;15.30;99.90;;;;;;5008247;28;20061;-78
2023/07/18 00:43:16;;;;;;;7.22;3.58;;;15.20;99.90;;;;;;5013144;28;20038;-77
2023/07/18 00:46:04;;;;;;;8.73;3.42;;;15.10;99.90;;;;;;5006399;28;20049;-77
2023/07/18 00:48:50;;;;;;;9.25;3.25;;;15.10;99.90;;;;;;5004406;28;20034;-77
2023/07/18 00:51:36;;;;;;;8.02;3.60;;;15.00;99.90;;;;;;4982500;28;20041;-77
2023/07/18 00:54:22;;;;;;;8.15;3.38;;;15.00;99.90;;;;;;4996416;28;20046;-77
2023/07/18 00:57:08;;;;;;;6.10;3.30;;;15.10;99.90;;;;;;5009570;28;20111;-77
2023/07/18 00:59:54;;;;;;;8.52;3.63;;;15.00;99.90;;;;;;5003159;28;20041;-77
2023/07/18 01:02:42;;;;;;;7.20;3.67;;;15.00;99.90;;;;;;5004922;28;20148;-78
2023/07/18 01:05:28;;;;;;;8.40;3.42;;;15.00;99.90;;;;;;4997907;28;20833;-78
2023/07/18 01:08:14;;;;;;;9.75;3.88;;;14.90;99.90;;;;;;4999568;28;20046;-78
2023/07/18 01:11:00;;;;;;;8.98;3.55;;;15.00;99.90;;;;;;5000563;28;20041;-78
2023/07/18 01:13:45;;;;;;;8.50;3.67;;;14.80;99.90;;;;;;4999948;28;20042;-77
2023/07/18 01:16:31;;;;;;;7.25;3.45;;;14.80;99.90;;;;;;4997208;28;20111;-77
2023/07/18 01:19:17;;;;;;;11.38;3.60;;;14.70;99.90;;;;;;4987847;28;20034;-77
2023/07/18 01:22:04;;;;;;;7.90;3.67;;;14.70;99.90;;;;;;4981357;28;20038;-77
2023/07/18 01:24:50;;;;;;;7.80;3.80;;;14.60;99.90;;;;;;5002189;28;20038;-77
2023/07/18 01:27:37;;;;;;;8.98;3.40;;;14.60;99.90;;;;;;4994336;28;20042;-77
2023/07/18 01:30:26;;;;;;;7.03;3.72;;;14.50;99.90;;;;;;4980162;28;20045;-77
2023/07/18 01:33:12;;;;;;;6.47;3.60;;;14.50;99.90;;;;;;4978637;28;20048;-77
2023/07/18 01:35:58;;;;;;;7.38;3.53;;;14.50;99.90;;;;;;4978045;28;20053;-77
2023/07/18 01:38:44;;;;;;;8.68;3.63;;;14.40;99.90;;;;;;4993005;28;20142;-77
2023/07/18 01:41:30;;;;;;;8.23;4.15;;;14.40;99.90;;;;;;5006582;28;20070;-78
2023/07/18 01:44:16;;;;;;;9.48;3.80;;;14.40;99.90;;;;;;4972696;28;20046;-78
2023/07/18 01:47:02;;;;;;;9.15;4.10;;;14.40;99.90;;;;;;5002934;28;20100;-78
2023/07/18 01:49:48;;;;;;;8.32;4.00;;;14.40;99.90;;;;;;4993393;28;20049;-78
2023/07/18 01:52:35;;;;;;;10.38;4.35;;;14.50;99.90;;;;;;5002399;28;20042;-78
2023/07/18 01:55:21;;;;;;;11.23;3.85;;;14.50;99.90;;;;;;4990127;28;20042;-78
2023/07/18 01:58:07;;;;;;;7.78;4.20;;;14.50;99.90;;;;;;5012595;28;20034;-78
2023/07/18 02:00:53;;;;;;;7.30;3.35;;;14.50;99.90;;;;;;4978378;28;20101;-78
2023/07/18 02:03:39;;;;;;;8.68;4.22;;;14.50;99.90;;;;;;4979559;28;20085;-78
2023/07/18 02:06:25;;;;;;;10.43;3.75;;;14.50;99.90;;;;;;4988544;28;20050;-78
2023/07/18 02:09:11;;;;;;;10.10;3.92;;;14.50;99.90;;;;;;4992438;28;20344;-78
2023/07/18 02:11:57;;;;;;;7.93;3.83;;;14.50;99.90;;;;;;4997369;28;20042;-78
2023/07/18 02:14:43;;;;;;;7.15;3.22;;;14.50;99.90;;;;;;4987674;28;20052;-78
2023/07/18 02:17:29;;;;;;;11.50;3.92;;;14.50;99.90;;;;;;4985478;28;20037;-78
2023/07/18 02:20:16;;;;;;;7.82;4.25;;;14.50;99.90;;;;;;5008854;28;20041;-78
2023/07/18 02:23:01;;;;;;;9.65;4.25;;;14.40;99.90;;;;;;4999236;28;20038;-78
2023/07/18 02:25:47;;;;;;;20.45;4.55;;;14.40;99.90;;;;;;4995048;28;20049;-78
2023/07/18 02:28:34;;;;;;;9.70;4.00;;;14.40;99.90;;;;;;5000935;28;20050;-78
2023/07/18 02:31:20;;;;;;;12.45;3.70;;;14.40;99.90;;;;;;5013366;28;20100;-78
2023/07/18 02:34:06;;;;;;;10.98;4.18;;;14.40;99.90;;;;;;4995799;28;20042;-78
2023/07/18 02:36:52;;;;;;;9.15;4.18;;;14.40;99.90;;;;;;4996582;28;20060;-78
2023/07/18 02:39:38;;;;;;;12.68;4.18;;;14.30;99.90;;;;;;5000822;28;20103;-78
2023/07/18 02:42:24;;;;;;;9.88;3.67;;;14.30;99.90;;;;;;4973492;28;20510;-78
2023/07/18 02:45:11;;;;;;;13.55;4.45;;;14.30;99.90;;;;;;4999358;28;20397;-78
2023/07/18 02:47:57;;;;;;;9.68;4.00;;;14.30;99.90;;;;;;5001369;28;20069;-78
2023/07/18 02:50:43;;;;;;;11.00;3.85;;;14.20;99.90;;;;;;4985796;28;20054;-78
2023/07/18 02:53:29;;;;;;;10.32;4.25;;;14.20;99.90;;;;;;4998273;28;20033;-78
2023/07/18 02:56:15;;;;;;;11.07;4.18;;;14.10;99.90;;;;;;4991320;28;20475;-78
2023/07/18 02:59:01;;;;;;;10.73;4.30;;;14.10;99.90;;;;;;4998603;28;20076;-78
2023/07/18 03:01:50;;;;;;;14.65;4.53;;;14.00;99.90;;;;;;5016660;28;20417;-78
2023/07/18 03:04:37;;;;;;;12.45;4.72;;;13.90;99.90;;;;;;4997104;28;20151;-78
2023/07/18 03:07:22;;;;;;;13.23;4.35;;;13.80;99.90;;;;;;5009358;28;20124;-78
2023/07/18 03:10:09;;;;;;;8.52;4.10;;;13.80;99.90;;;;;;5008772;28;20046;-78
2023/07/18 03:12:55;;;;;;;11.57;3.97;;;13.80;99.90;;;;;;5001337;28;20501;-78
2023/07/18 03:15:41;;;;;;;12.23;4.18;;;13.80;99.90;;;;;;5003744;28;20050;-78
2023/07/18 03:18:27;;;;;;;10.98;4.07;;;13.80;99.90;;;;;;5001612;28;20679;-78
2023/07/18 03:21:13;;;;;;;10.02;4.00;;;13.80;99.90;;;;;;4990607;28;20065;-79
2023/07/18 03:23:59;;;;;;;9.15;3.97;;;13.80;99.90;;;;;;5015030;28;20034;-78
2023/07/18 03:26:45;;;;;;;7.80;4.13;;;13.70;99.90;;;;;;5004169;28;20053;-78
2023/07/18 03:29:31;;;;;;;13.70;4.28;;;13.70;99.90;;;;;;5007392;28;20052;-78
2023/07/18 03:32:16;;;;;;;12.18;4.88;;;13.70;99.90;;;;;;5008758;28;20049;-79
2023/07/18 03:35:03;;;;;;;8.73;4.43;;;13.70;99.90;;;;;;4988428;28;20064;-79
2023/07/18 03:37:49;;;;;;;8.52;4.18;;;13.60;99.90;;;;;;5012788;28;20045;-78
2023/07/18 03:40:35;;;;;;;10.38;4.53;;;13.70;99.90;;;;;;5016093;28;20583;-78
2023/07/18 03:43:21;;;;;;;8.65;3.90;;;13.70;99.90;;;;;;4977211;28;20065;-78
2023/07/18 03:46:07;;;;;;;11.95;4.72;;;13.70;99.90;;;;;;5019592;28;20051;-78
2023/07/18 03:48:53;;;;;;;12.38;4.50;;;13.80;99.90;;;;;;5014925;28;20132;-78
2023/07/18 03:51:39;;;;;;;14.98;4.60;;;13.80;99.90;;;;;;5019831;28;20037;-78
2023/07/18 03:54:25;;;;;;;8.60;4.25;;;13.70;99.90;;;;;;5015395;28;20053;-78
2023/07/18 03:57:12;;;;;;;7.80;3.75;;;13.80;99.90;;;;;;5008730;28;20064;-78
2023/07/18 03:59:58;;;;;;;10.80;4.03;;;13.80;99.90;;;;;;4986997;28;20029;-76
2023/07/18 04:02:45;;;;;;;21.75;4.88;;;13.80;99.90;;;;;;5000096;28;20057;-76
2023/07/18 04:05:31;;;;;;;13.90;4.07;;;13.80;99.90;;;;;;4997627;28;20052;-76
2023/07/18 04:08:18;;;;;;;11.05;4.70;;;13.90;99.90;;;;;;5012528;28;20054;-76
2023/07/18 04:11:04;;;;;;;11.20;3.63;;;13.90;99.90;;;;;;5007285;28;20128;-76
2023/07/18 04:13:50;;;;;;;10.73;4.20;;;13.90;99.90;;;;;;4978338;28;20508;-76
2023/07/18 04:16:37;;;;;;;10.20;4.45;;;14.00;99.90;;;;;;4995808;28;20041;-76
2023/07/18 04:19:23;;;;;;;8.73;4.10;;;14.00;99.90;;;;;;5001171;28;20041;-76
2023/07/18 04:22:09;;;;;;;10.80;3.85;;;14.00;99.90;;;;;;5006965;28;20037;-76
2023/07/18 04:24:56;;;;;;;10.40;3.90;;;14.10;99.90;;;;;;5012517;28;20050;-76
2023/07/18 04:27:42;;;;;;;13.77;5.13;;;14.10;99.90;;;;;;5026769;28;20501;-76
2023/07/18 04:30:28;;;;;;;12.88;4.15;;;14.10;99.90;;;;;;5004400;28;20037;-75
2023/07/18 04:33:14;;;;;;;12.77;4.60;;;14.20;99.90;;;;;;4967461;28;20042;-76
2023/07/18 04:36:00;;;;;;;10.57;4.32;;;14.30;99.90;;;;;;4999178;28;20132;-77
2023/07/18 04:38:46;;;;;;;12.57;4.57;;;14.30;99.90;;;;;;4998265;28;20048;-76
2023/07/18 04:41:32;;;;;;;9.80;3.90;;;14.30;99.90;;;;;;4981279;28;20124;-76
2023/07/18 04:44:18;;;;;;;12.35;4.80;;;14.40;99.90;;;;;;5009020;28;20040;-76
2023/07/18 04:47:04;;;;;;;8.10;3.97;;;14.40;99.90;;;;;;4998475;28;20492;-76
2023/07/18 04:49:50;;;;;;;12.27;4.25;;;14.50;99.90;;;;;;5003570;28;20034;-76
2023/07/18 04:52:36;;;;;;;10.27;3.75;;;14.60;99.90;;;;;;4994497;28;20077;-76
2023/07/18 04:55:22;;;;;;;7.95;3.53;;;14.70;99.90;;;;;;5011915;28;20132;-76
2023/07/18 04:58:08;;;;;;;8.18;4.05;;;14.70;99.90;;;;;;5013527;28;20566;-76
2023/07/18 05:00:55;;;;;;;11.35;4.53;;;14.80;99.90;;;;;;4996681;28;20760;-76
2023/07/18 05:03:41;;;;;;;8.30;4.18;;;14.80;99.90;;;;;;4993299;28;20146;-76
2023/07/18 05:06:28;;;;;;;11.05;4.15;;;14.80;99.90;;;;;;4992306;28;20377;-76
2023/07/18 05:09:14;;;;;;;11.15;4.30;;;14.80;99.90;;;;;;5004026;28;20041;-76
2023/07/18 05:12:00;;;;;;;11.07;4.53;;;14.90;99.90;;;;;;4996004;28;20046;-76
2023/07/18 05:14:46;;;;;;;13.35;4.00;;;14.80;99.90;;;;;;5005646;28;20152;-75
2023/07/18 05:17:32;;;;;;;10.10;4.03;;;15.00;99.90;;;;;;4985383;28;20041;-75
2023/07/18 05:20:19;;;;;;;10.00;4.20;;;15.00;99.90;;;;;;4986223;28;20042;-75
2023/07/18 05:23:05;;;;;;;14.43;4.28;;;14.90;99.90;;;;;;4991956;28;20108;-75
2023/07/18 05:25:51;;;;;;;10.93;3.90;;;15.00;99.90;;;;;;4993177;28;20116;-75
2023/07/18 05:28:37;;;;;;;11.07;4.47;;;15.10;99.90;;;;;;4985872;28;20381;-75
2023/07/18 05:31:23;;;;;;;13.20;5.07;;;15.20;99.90;;;;;;5006083;28;20926;-75
2023/07/18 05:34:09;;;;;;;9.43;3.88;;;15.20;99.90;;;;;;4996696;28;20110;-75
2023/07/18 05:36:54;;;;;;;10.77;4.25;;;15.30;99.90;;;;;;4987435;28;20037;-75
2023/07/18 05:39:40;;;;;;;9.98;4.00;;;15.30;99.90;;;;;;5001316;28;20034;-75
2023/07/18 05:42:26;;;;;;;10.20;3.97;;;15.30;99.90;;;;;;5008930;28;20053;-75
2023/07/18 05:45:14;;;;;;;10.52;4.43;;;15.40;99.90;;;;;;5003464;28;20563;-75
2023/07/18 05:48:00;;;;;;;12.25;4.60;;;15.40;99.90;;;;;;4994486;28;20048;-75
2023/07/18 05:50:46;;;;;;;8.00;4.05;;;15.40;99.90;;;;;;5003790;28;20408;-75
2023/07/18 05:53:33;;;;;;;15.77;4.38;;;15.40;99.90;;;;;;5012061;28;20041;-74
2023/07/18 05:56:19;;;;;;;9.43;3.60;;;15.40;99.90;;;;;;5003027;28;20049;-74
2023/07/18 05:59:06;;;;;;;10.63;4.22;;;15.50;99.90;;;;;;4995059;28;20048;-75
2023/07/18 06:01:52;;;;;;;10.87;4.37;;;15.50;99.90;;;;;;5010836;28;20123;-74
2023/07/18 06:04:38;;;;;;;9.65;3.75;;;15.50;99.90;;;;;;5007294;28;20049;-75
2023/07/18 06:07:24;;;;;;;9.23;4.05;;;15.60;99.90;;;;;;5011914;28;20096;-75
2023/07/18 06:10:11;;;;;;;9.50;4.45;;;15.60;99.90;;;;;;4990262;28;20049;-75
2023/07/18 06:12:57;;;;;;;10.55;4.30;;;15.70;99.90;;;;;;5010322;28;20038;-75
2023/07/18 06:15:43;;;;;;;10.35;4.20;;;15.70;99.90;;;;;;5022868;28;20050;-75
2023/07/18 06:18:30;;;;;;;12.43;4.45;;;15.80;99.90;;;;;;5004834;28;20158;-75
2023/07/18 06:21:16;;;;;;;11.32;4.60;;;15.80;99.90;;;;;;5003911;28;20042;-75
2023/07/18 06:24:02;;;;;;;9.73;4.10;;;15.80;99.90;;;;;;4994997;28;20551;-75
2023/07/18 06:26:50;;;;;;;9.57;4.30;;;15.90;99.90;;;;;;5013664;28;20429;-75
2023/07/18 06:29:37;;;;;;;8.27;3.72;;;16.00;99.90;;;;;;5006924;28;20037;-75
2023/07/18 06:32:23;;;;;;;12.68;4.90;;;16.00;99.90;;;;;;4974987;28;20041;-76
2023/07/18 06:35:10;;;;;;;8.82;3.55;;;16.10;99.90;;;;;;5017935;28;20077;-76
2023/07/18 06:37:56;;;;;;;9.65;3.75;;;16.20;99.90;;;;;;5011410;28;20037;-75
2023/07/18 06:40:45;;;;;;;8.32;3.83;;;16.30;99.90;;;;;;4999493;28;20648;-75
2023/07/18 06:43:32;;;;;;;11.77;4.63;;;16.40;99.90;;;;;;5011636;28;20042;-75
2023/07/18 06:46:18;;;;;;;12.80;3.90;;;16.40;99.90;;;;;;4994199;28;20087;-74
2023/07/18 06:49:05;;;;;;;11.20;3.95;;;16.50;99.90;;;;;;5006347;28;20049;-74
2023/07/18 06:51:51;;;;;;;10.55;3.80;;;16.50;99.90;;;;;;4987616;28;20085;-74
2023/07/18 06:54:38;;;;;;;10.43;4.03;;;16.60;99.90;;;;;;5004260;28;20048;-75
2023/07/18 06:57:24;;;;;;;7.80;3.55;;;16.60;99.90;;;;;;5007696;28;20041;-74
2023/07/18 07:00:11;;;;;;;11.60;4.20;;;16.60;99.90;;;;;;4977518;28;20109;-75
2023/07/18 07:02:57;;;;;;;12.50;3.50;;;16.70;99.90;;;;;;4992496;28;20072;-74
2023/07/18 07:05:43;;;;;;;10.32;3.80;;;16.70;99.90;;;;;;4982175;28;20080;-75
2023/07/18 07:08:30;;;;;;;8.50;3.50;;;16.80;99.90;;;;;;5000508;28;20041;-75
2023/07/18 07:11:16;;;;;;;13.52;3.72;;;16.90;99.90;;;;;;4995740;28;20041;-75
2023/07/18 07:14:04;;;;;;;9.15;3.00;;;16.90;99.90;;;;;;5005268;28;20079;-75
2023/07/18 07:16:50;;;;;;;;;;;17.00;99.90;;;;;;5005723;28;20728;-75
2023/07/18 07:19:36;;;;;;;9.70;3.20;;;17.00;99.90;;;;;;4999269;28;19914;-75
2023/07/18 07:22:22;;;;;;;6.20;2.70;;;17.10;99.90;;;;;;5008764;28;20044;-75
2023/07/18 07:25:09;;;;;;;10.00;3.28;;;17.20;99.90;;;;;;4997213;28;20041;-74
2023/07/18 07:27:56;;;;;;;7.22;3.08;;;17.30;99.90;;;;;;5003304;28;20046;-75
2023/07/18 07:30:42;;;;;;;9.32;2.78;;;17.30;99.90;;;;;;4984564;28;20042;-75
2023/07/18 07:33:28;;;;;;;8.45;3.60;;;17.40;99.90;;;;;;5010897;28;20052;-76
2023/07/18 07:36:15;;;;;;;8.35;3.30;;;17.30;99.90;;;;;;4996917;28;20046;-76
2023/07/18 07:39:00;;;;;;;6.65;2.75;;;17.40;99.90;;;;;;4987011;28;20631;-76
2023/07/18 07:41:46;;;;;;;5.68;2.78;;;17.40;99.90;;;;;;5005774;28;20037;-77
2023/07/18 07:44:32;;;;;;;8.82;2.65;;;17.50;99.90;;;;;;5002081;28;20045;-76
2023/07/18 07:47:18;;;;;;;8.15;2.83;;;17.70;99.90;;;;;;5014313;28;20068;-77
2023/07/18 07:50:05;;;;;;;12.20;3.47;;;17.80;99.90;;;;;;5006020;28;20041;-77
2023/07/18 07:52:51;;;;;;;6.75;3.03;;;17.80;99.90;;;;;;5001811;28;20052;-77
2023/07/18 07:55:37;;;;;;;7.78;2.97;;;17.80;99.90;;;;;;4987623;28;20060;-77
2023/07/18 07:58:23;;;;;;;8.20;2.80;;;17.90;99.90;;;;;;5000800;28;20042;-77
2023/07/18 08:01:10;;;;;;;6.20;2.53;;;17.90;99.90;;;;;;5009141;28;20037;-76
2023/07/18 08:03:56;;;;;;;5.65;2.42;;;18.00;99.90;;;;;;4992506;28;20512;-76
2023/07/18 08:06:42;;;;;;;5.57;2.15;;;18.00;99.90;;;;;;4999456;28;20469;-76
2023/07/18 08:09:28;;;;;;;8.38;2.25;;;18.00;99.90;;;;;;5008076;28;20129;-74
2023/07/18 08:12:14;;;;;;;7.97;2.10;;;18.10;99.90;;;;;;5035145;28;20171;-74
2023/07/18 08:15:00;;;;;;;7.03;2.35;;;18.20;99.90;;;;;;4999891;28;20088;-74
2023/07/18 08:17:46;;;;;;;5.88;2.40;;;18.20;99.90;;;;;;4991779;28;20470;-74
2023/07/18 08:20:32;;;;;;;6.38;1.75;;;18.20;99.90;;;;;;4981476;28;20052;-74
2023/07/18 08:23:18;;;;;;;5.25;2.10;;;18.40;99.90;;;;;;5014666;28;20120;-75
2023/07/18 08:26:04;;;;;;;5.40;2.28;;;18.30;99.90;;;;;;5013772;28;20132;-75
2023/07/18 08:28:50;;;;;;;9.82;2.92;;;18.30;99.90;;;;;;5010388;28;20048;-75
2023/07/18 08:31:36;;;;;;;6.05;1.92;;;18.40;99.90;;;;;;5003728;28;20378;-75
2023/07/18 08:34:22;;;;;;;7.60;2.22;;;18.60;99.90;;;;;;4992964;28;20046;-75
2023/07/18 08:37:09;;;;;;;5.35;2.13;;;18.70;99.90;;;;;;5007907;28;20060;-74
2023/07/18 08:39:55;;;;;;;7.30;2.10;;;18.60;99.90;;;;;;5004314;28;20545;-74
2023/07/18 08:42:42;;;;;;;7.85;2.30;;;18.70;99.90;;;;;;5014199;28;20045;-74
2023/07/18 08:45:29;;;;;;;7.35;1.90;;;18.80;99.90;;;;;;5014588;28;20056;-75
2023/07/18 08:48:15;;;;;;;6.10;2.08;;;18.80;99.90;;;;;;5003745;28;20069;-74
2023/07/18 08:51:00;;;;;;;5.97;1.85;;;19.00;99.90;;;;;;4993113;28;20044;-75
2023/07/18 08:53:47;;;;;;;6.20;1.92;;;19.00;98.60;;;;;;4984699;28;20042;-74
2023/07/18 08:56:32;;;;;;;6.47;1.90;;;18.90;99.90;;;;;;5017415;28;20072;-75
2023/07/18 08:59:19;;;;;;;6.85;1.60;;;18.90;99.60;;;;;;5002376;28;20076;-75
2023/07/18 09:02:05;;;;;;;7.43;2.10;;;19.00;99.50;;;;;;5004423;28;20054;-74
2023/07/18 09:04:51;;;;;;;4.10;1.60;;;19.20;99.20;;;;;;5005102;28;20132;-74
2023/07/18 09:07:37;;;;;;;2.65;1.33;;;19.20;99.50;;;;;;4991614;28;20049;-74
2023/07/18 09:10:23;;;;;;;5.53;2.10;;;19.30;97.90;;;;;;4997142;28;20107;-75
2023/07/18 09:13:09;;;;;;;5.53;1.67;;;19.20;97.40;;;;;;5005440;28;20057;-74
2023/07/18 09:15:55;;;;;;;7.18;1.33;;;19.40;97.00;;;;;;4977182;28;20435;-75
2023/07/18 09:18:51;;;;;;;5.60;1.63;;;19.40;97.50;;;;;;5003097;28;20475;-75
2023/07/18 09:21:37;;;;;;;5.50;1.60;;;19.40;97.00;;;;;;5004675;28;20453;-74
2023/07/18 09:24:30;;;;;;;7.85;1.75;;;19.40;96.30;;;;;;4984324;28;20404;-75
2023/07/18 09:27:17;;;;;;;4.55;1.73;;;19.50;98.10;;;;;;4993648;28;20124;-75
2023/07/18 09:30:05;;;;;;;2.92;1.50;;;19.50;97.10;;;;;;5000834;28;20061;-77
2023/07/18 09:32:52;;;;;;;4.97;1.65;;;19.60;96.20;;;;;;5000711;28;20088;-77
2023/07/18 09:35:42;;;;;;;5.65;2.17;;;19.70;97.60;;;;;;4986728;28;20096;-77
2023/07/18 09:38:29;;;;;;;5.00;2.00;;;19.70;97.70;;;;;;4987730;28;20462;-76
2023/07/18 09:41:19;;;;;;;4.47;1.52;;;19.90;98.40;;;;;;5000535;28;20383;-75
2023/07/18 09:44:05;;;;;;;5.07;1.42;;;19.90;96.70;;;;;;4989202;28;20459;-76
2023/07/18 09:46:51;;;;;;;4.75;1.48;;;20.00;97.40;;;;;;5010788;28;20045;-75
2023/07/18 09:49:37;;;;;;;6.18;1.38;;;20.20;97.20;;;;;;5002504;28;20046;-75
2023/07/18 09:52:26;;;;;;;3.33;1.42;;;20.10;94.30;;;;;;4998430;28;20459;-75
2023/07/18 09:55:12;;;;;;;5.72;1.98;;;20.00;93.80;;;;;;5003061;28;20050;-75
2023/07/18 09:57:58;;;;;;;5.95;1.83;;;20.10;95.40;;;;;;4985765;28;20044;-75
2023/07/18 10:00:44;;;;;;;4.47;1.52;;;20.30;96.30;;;;;;4977110;28;20042;-75
2023/07/18 10:03:32;;;;;;;7.07;1.50;;;20.30;95.70;;;;;;4982265;28;20141;-75
2023/07/18 10:06:19;;;;;;;2.88;1.20;;;20.50;94.50;;;;;;5004013;28;20120;-75
2023/07/18 10:09:05;;;;;;;3.78;1.23;;;20.50;93.60;;;;;;4988421;28;20048;-75
2023/07/18 10:11:57;;;;;;;3.65;1.40;;;20.60;95.00;;;;;;5000635;28;20053;-76
2023/07/18 10:14:56;;;;;;;4.85;1.50;;;20.60;94.60;;;;;;4992305;28;20490;-77
2023/07/18 10:17:42;;;;;;;4.13;1.10;;;20.70;94.70;;;;;;4976828;28;20058;-76
2023/07/18 10:20:34;;;;;;;3.78;1.52;;;21.00;93.90;;;;;;4969003;28;20049;-76
2023/07/18 10:23:34;;;;;;;3.20;1.30;;;21.00;92.20;;;;;;5001583;28;20078;-75
2023/07/18 10:26:33;;;;;;;3.13;1.25;;;21.10;94.10;;;;;;4969304;28;20064;-75
2023/07/18 10:29:19;;;;;;;4.28;1.23;;;21.30;93.20;;;;;;4979571;28;20042;-75
2023/07/18 10:32:11;;;;;;;6.05;1.20;;;21.30;91.70;;;;;;5003812;28;20561;-77
2023/07/18 10:34:58;;;;;;;3.15;1.10;;;21.20;90.90;;;;;;4998663;28;20094;-75
2023/07/18 10:37:46;;;;;;;5.05;1.20;;;21.40;90.30;;;;;;5007734;28;20037;-76
2023/07/18 10:40:36;;;;;;;4.68;1.52;;;21.20;90.90;;;;;;4968546;28;20061;-76
2023/07/18 10:43:23;;;;;;;3.42;1.20;;;21.50;92.30;;;;;;5000080;28;20037;-77
2023/07/18 10:46:09;;;;;;;7.72;1.50;;;21.60;91.90;;;;;;5007844;28;20113;-74
2023/07/18 10:48:55;;;;;;;3.83;1.38;;;21.50;91.40;;;;;;4986431;28;20037;-74
2023/07/18 10:51:41;;;;;;;5.63;1.10;;;21.70;91.70;;;;;;4987025;28;20038;-74
2023/07/18 10:54:27;;;;;;;5.03;1.20;;;21.70;90.70;;;;;;4977967;28;20117;-75
2023/07/18 10:57:14;;;;;;;4.97;1.15;;;21.60;91.80;;;;;;4999347;28;20422;-76
2023/07/18 11:00:00;;;;;;;2.80;1.17;;;21.60;91.10;;;;;;4993208;28;20056;-75
2023/07/18 11:02:48;;;;;;;4.43;1.25;;;21.60;90.70;;;;;;4990542;28;20054;-75
2023/07/18 11:05:34;;;;;;;3.33;1.10;;;22.00;91.40;;;;;;5000625;28;20450;-75
2023/07/18 11:08:27;;;;;;;5.13;1.10;;;22.20;91.10;;;;;;4979434;28;20041;-75
2023/07/18 11:11:14;;;;;;;3.33;1.38;;;22.10;90.50;;;;;;4992987;28;20037;-75
2023/07/18 11:14:00;;;;;;;5.07;1.20;;;22.00;90.90;;;;;;4985482;28;20046;-75
2023/07/18 11:16:46;;;;;;;3.72;1.05;;;22.00;90.80;;;;;;4996793;28;20046;-74
2023/07/18 11:19:32;;;;;;;3.10;1.10;;;22.00;91.00;;;;;;4995979;28;20920;-74
2023/07/18 11:22:18;;;;;;;2.80;1.10;;;22.10;90.30;;;;;;4996257;28;20035;-75
2023/07/18 11:25:05;;;;;;;2.17;0.90;;;22.30;90.10;;;;;;4977069;28;20046;-76
2023/07/18 11:27:51;;;;;;;2.25;1.00;;;22.10;88.50;;;;;;4996433;28;20046;-77
2023/07/18 11:30:37;;;;;;;5.35;1.45;;;21.90;89.10;;;;;;4988123;28;20046;-74
2023/07/18 11:33:33;;;;;;;2.85;1.17;;;22.20;89.10;;;;;;4978947;28;20698;-73
2023/07/18 11:36:39;;;;;;;3.80;1.00;;;22.40;89.80;;;;;;4972695;28;20044;-73
2023/07/18 11:39:30;;;;;;;1.92;0.90;;;22.70;86.30;;;;;;4990373;28;20856;-77
2023/07/18 11:42:17;;;;;;;2.25;1.20;;;22.70;86.00;;;;;;4993997;28;20046;-76
2023/07/18 11:45:08;;;;;;;3.38;1.17;;;22.70;86.10;;;;;;4981598;28;20042;-75
2023/07/18 11:47:55;;;;;;;5.30;1.30;;;23.10;87.10;;;;;;4986641;28;20050;-77
2023/07/18 11:50:45;;;;;;;4.07;1.08;;;22.90;85.20;;;;;;4970012;28;20099;-76
2023/07/18 11:53:31;;;;;;;2.92;1.10;;;23.00;83.30;;;;;;4988892;28;20045;-74
2023/07/18 11:56:18;;;;;;;3.70;1.15;;;22.90;83.00;;;;;;4995476;28;20539;-74
2023/07/18 11:59:05;;;;;;;3.37;1.27;;;22.80;81.00;;;;;;4979431;28;20049;-77
2023/07/18 12:01:51;;;;;;;2.85;1.25;;;22.70;83.50;;;;;;4993085;28;20061;-76
2023/07/18 12:04:38;;;;;;;2.42;1.10;;;22.40;83.60;;;;;;5006337;28;20112;-76
2023/07/18 12:07:24;;;;;;;3.38;1.48;;;22.30;84.70;;;;;;4986888;28;20030;-76
2023/07/18 12:10:10;;;;;;;4.20;1.27;;;22.50;84.90;;;;;;5012185;28;20048;-74
2023/07/18 12:12:56;;;;;;;2.33;1.00;;;22.70;84.30;;;;;;4982793;28;20037;-73
2023/07/18 12:15:42;;;;;;;3.42;1.02;;;22.80;82.60;;;;;;5000077;28;20549;-73
2023/07/18 12:18:28;;;;;;;2.22;1.10;;;23.00;82.90;;;;;;4994232;28;20073;-73
2023/07/18 12:21:14;;;;;;;4.40;1.20;;;23.20;83.00;;;;;;4993250;28;20483;-75
2023/07/18 12:24:01;;;;;;;3.20;1.05;;;23.00;83.70;;;;;;4998718;28;20048;-78
2023/07/18 12:26:47;;;;;;;2.58;1.13;;;23.20;82.00;;;;;;5007718;28;20049;-77
2023/07/18 12:29:33;;;;;;;2.47;0.90;;;23.30;81.40;;;;;;4989798;28;20065;-77
2023/07/18 12:32:21;;;;;;;4.85;1.20;;;23.30;83.40;;;;;;5002986;28;20049;-75
2023/07/18 12:35:07;;;;;;;5.63;0.95;;;23.70;81.90;;;;;;5005479;28;20052;-78
2023/07/18 12:37:54;;;;;;;2.45;1.00;;;23.80;80.10;;;;;;5004807;28;20048;-74
2023/07/18 12:40:40;;;;;;;3.92;1.00;;;23.50;77.20;;;;;;5002707;28;20030;-74
2023/07/18 12:43:29;;;;;;;2.58;1.02;;;23.60;79.80;;;;;;5013129;28;20041;-74
2023/07/18 12:46:15;;;;;;;5.65;1.02;;;23.90;78.30;;;;;;4987686;28;20042;-75
2023/07/18 12:49:01;;;;;;;3.85;1.10;;;23.60;77.70;;;;;;4998672;28;20038;-77
2023/07/18 12:51:47;;;;;;;2.55;1.10;;;23.30;77.00;;;;;;4979469;28;20423;-77
2023/07/18 12:54:33;;;;;;;4.10;2.20;;;23.40;78.20;;;;;;4998876;28;20446;-77
2023/07/18 12:57:19;;;;;;;5.05;1.38;;;23.40;78.30;;;;;;4997809;28;20147;-78
2023/07/18 13:00:09;;;;;;;3.53;1.17;;;23.30;78.00;;;;;;4986818;28;20049;-78
2023/07/18 13:02:55;;;;;;;1.83;0.80;;;23.10;78.70;;;;;;4998241;28;20045;-77
2023/07/18 13:05:43;;;;;;;3.65;1.10;;;23.10;78.20;;;;;;4997761;28;20474;-74
2023/07/18 13:08:29;;;;;;;3.10;1.35;;;23.10;77.50;;;;;;4990784;28;20475;-77
2023/07/18 13:11:15;;;;;;;3.55;1.02;;;23.20;78.10;;;;;;4988786;28;20045;-76
2023/07/18 13:14:01;;;;;;;4.50;1.00;;;23.20;78.70;;;;;;4997228;28;20042;-76
2023/07/18 13:16:47;;;;;;;5.45;1.10;;;23.30;78.80;;;;;;5003763;28;20038;-75
2023/07/18 13:19:33;;;;;;;1.98;0.85;;;23.40;78.50;;;;;;4990319;28;20279;-73
2023/07/18 13:22:19;;;;;;;3.03;1.00;;;23.40;77.40;;;;;;4991432;28;20460;-73
2023/07/18 13:25:07;;;;;;;2.47;1.02;;;23.40;77.30;;;;;;5000981;28;20049;-73
2023/07/18 13:27:53;;;;;;;3.45;1.00;;;23.60;78.30;;;;;;4973462;28;20138;-73
2023/07/18 13:30:39;;;;;;;3.15;1.10;;;23.70;77.70;;;;;;4989959;28;20136;-73
2023/07/18 13:33:25;;;;;;;2.55;1.15;;;23.70;78.70;;;;;;4995087;28;20204;-73
2023/07/18 13:36:12;;;;;;;3.80;1.02;;;23.70;77.20;;;;;;4993752;28;20104;-73
2023/07/18 13:38:58;;;;;;;2.08;0.98;;;23.70;78.20;;;;;;4976136;28;20058;-73
2023/07/18 13:41:44;;;;;;;3.90;1.13;;;23.60;76.90;;;;;;4982858;28;20038;-76
2023/07/18 13:44:30;;;;;;;2.70;0.98;;;23.60;76.00;;;;;;4992326;28;20062;-76
2023/07/18 13:47:17;;;;;;;2.75;1.10;;;23.70;75.20;;;;;;4992235;28;20407;-76
2023/07/18 13:50:03;;;;;;;4.07;1.13;;;23.80;75.80;;;;;;4982264;28;20150;-76
2023/07/18 13:52:51;;;;;;;3.70;1.00;;;23.80;73.90;;;;;;4986445;28;20089;-76
2023/07/18 13:55:37;;;;;;;3.10;0.90;;;24.00;75.40;;;;;;4994575;28;20054;-76
2023/07/18 13:58:23;;;;;;;2.75;0.90;;;24.30;74.80;;;;;;4996533;28;20106;-75
2023/07/18 14:01:09;;;;;;;2.95;0.90;;;24.10;73.90;;;;;;4992113;28;20375;-77
2023/07/18 14:03:55;;;;;;;2.30;1.00;;;24.00;70.20;;;;;;4980327;28;20046;-76
2023/07/18 14:06:41;;;;;;;2.50;1.08;;;24.10;71.80;;;;;;4986513;28;20856;-76
2023/07/18 14:09:27;;;;;;;1.65;0.80;;;24.00;72.30;;;;;;4990692;28;20049;-76
2023/07/18 14:12:14;;;;;;;2.67;0.95;;;24.00;71.70;;;;;;4995360;28;20038;-76
2023/07/18 14:15:00;;;;;;;4.20;1.00;;;24.10;72.10;;;;;;4988598;28;20065;-77
2023/07/18 14:17:46;;;;;;;2.58;1.00;;;24.30;71.70;;;;;;5003382;28;20226;-76
2023/07/18 14:20:32;;;;;;;1.45;0.70;;;24.50;70.00;;;;;;4992803;28;20101;-78
2023/07/18 14:23:18;;;;;;;2.17;0.90;;;24.60;69.60;;;;;;4970012;28;20031;-79
2023/07/18 14:26:04;;;;;;;2.65;0.88;;;24.70;68.80;;;;;;4996601;28;20060;-78